sensor_id;sensor_type;location;lat;lon;timestamp;pressure;altitude;pressure_sealevel;temperature;humidity
41513;BME280;27244;59.940;30.280;2023-02-15T00:01:42;102560.34;;;24.09;33.30
41513;BME280;27244;59.940;30.280;2023-02-15T00:04:13;102564.34;;;24.11;33.17
41513;BME280;27244;59.940;30.280;2023-02-15T00:06:41;102563.97;;;24.13;33.44
41513;BME280;27244;59.940;30.280;2023-02-15T00:09:09;102557.09;;;24.10;33.30
41513;BME280;27244;59.940;30.280;2023-02-15T00:11:36;102552.28;;;24.11;33.33
41513;BME280;27244;59.940;30.280;2023-02-15T00:14:08;102558.72;;;24.11;33.24
41513;BME280;27244;59.940;30.280;2023-02-15T00:16:35;102553.09;;;24.11;33.23
41513;BME280;27244;59.940;30.280;2023-02-15T00:19:04;102557.53;;;24.12;33.44
41513;BME280;27244;59.940;30.280;2023-02-15T00:21:32;102551.88;;;24.12;33.44
41513;BME280;27244;59.940;30.280;2023-02-15T00:24:01;102555.50;;;24.13;33.36
41513;BME280;27244;59.940;30.280;2023-02-15T00:26:28;102569.22;;;24.14;33.50
41513;BME280;27244;59.940;30.280;2023-02-15T00:28:56;102562.34;;;24.12;33.42
41513;BME280;27244;59.940;30.280;2023-02-15T00:31:26;102563.97;;;24.13;33.38
41513;BME280;27244;59.940;30.280;2023-02-15T00:33:55;102561.16;;;24.13;33.60
41513;BME280;27244;59.940;30.280;2023-02-15T00:36:23;102551.50;;;24.14;33.52
41513;BME280;27244;59.940;30.280;2023-02-15T00:38:50;102541.00;;;24.03;33.54
41513;BME280;27244;59.940;30.280;2023-02-15T00:41:17;102550.69;;;24.13;33.42
41513;BME280;27244;59.940;30.280;2023-02-15T00:43:44;102553.50;;;24.13;33.55
41513;BME280;27244;59.940;30.280;2023-02-15T00:46:11;102546.66;;;24.14;33.33
41513;BME280;27244;59.940;30.280;2023-02-15T00:48:38;102551.91;;;24.16;33.43
41513;BME280;27244;59.940;30.280;2023-02-15T00:51:05;102551.09;;;24.15;33.47
41513;BME280;27244;59.940;30.280;2023-02-15T00:53:34;102552.69;;;24.13;33.51
41513;BME280;27244;59.940;30.280;2023-02-15T00:56:01;102537.78;;;24.01;32.81
41513;BME280;27244;59.940;30.280;2023-02-15T00:58:27;102540.19;;;24.03;32.48
41513;BME280;27244;59.940;30.280;2023-02-15T01:00:54;102522.47;;;23.85;31.76
41513;BME280;27244;59.940;30.280;2023-02-15T01:03:23;102547.47;;;23.93;31.37
41513;BME280;27244;59.940;30.280;2023-02-15T01:05:50;102544.63;;;23.90;31.14
41513;BME280;27244;59.940;30.280;2023-02-15T01:08:17;102543.44;;;23.87;30.92
41513;BME280;27244;59.940;30.280;2023-02-15T01:10:45;102542.22;;;23.85;31.01
41513;BME280;27244;59.940;30.280;2023-02-15T01:13:14;102551.47;;;23.82;30.47
41513;BME280;27244;59.940;30.280;2023-02-15T01:15:42;102554.28;;;23.78;30.53
41513;BME280;27244;59.940;30.280;2023-02-15T01:18:09;102551.09;;;23.76;30.44
41513;BME280;27244;59.940;30.280;2023-02-15T01:20:37;102549.03;;;23.73;30.60
41513;BME280;27244;59.940;30.280;2023-02-15T01:23:07;102550.28;;;23.72;30.62
41513;BME280;27244;59.940;30.280;2023-02-15T01:25:35;102545.44;;;23.69;29.91
41513;BME280;27244;59.940;30.280;2023-02-15T01:28:04;102542.63;;;23.69;29.98
41513;BME280;27244;59.940;30.280;2023-02-15T01:30:31;102532.13;;;23.66;29.94
41513;BME280;27244;59.940;30.280;2023-02-15T01:32:59;102519.28;;;23.62;29.81
41513;BME280;27244;59.940;30.280;2023-02-15T01:35:29;102522.47;;;23.67;28.32
41513;BME280;27244;59.940;30.280;2023-02-15T01:37:57;102523.28;;;23.71;28.22
41513;BME280;27244;59.940;30.280;2023-02-15T01:40:24;102526.50;;;23.73;27.88
41513;BME280;27244;59.940;30.280;2023-02-15T01:42:52;102530.56;;;23.76;27.74
41513;BME280;27244;59.940;30.280;2023-02-15T01:45:23;102530.56;;;23.79;27.36
41513;BME280;27244;59.940;30.280;2023-02-15T01:47:56;102524.09;;;23.68;27.52
41513;BME280;27244;59.940;30.280;2023-02-15T01:50:28;102530.56;;;23.72;27.49
41513;BME280;27244;59.940;30.280;2023-02-15T01:53:00;102531.75;;;23.75;27.41
41513;BME280;27244;59.940;30.280;2023-02-15T01:55:31;102533.75;;;23.74;27.35
41513;BME280;27244;59.940;30.280;2023-02-15T01:58:00;102529.75;;;23.68;27.53
41513;BME280;27244;59.940;30.280;2023-02-15T02:00:30;102528.13;;;23.67;27.38
41513;BME280;27244;59.940;30.280;2023-02-15T02:02:57;102523.69;;;23.66;27.50
41513;BME280;27244;59.940;30.280;2023-02-15T02:05:25;102522.47;;;23.60;27.60
41513;BME280;27244;59.940;30.280;2023-02-15T02:07:54;102519.28;;;23.62;27.28
41513;BME280;27244;59.940;30.280;2023-02-15T02:10:23;102521.66;;;23.60;27.24
41513;BME280;27244;59.940;30.280;2023-02-15T02:12:54;102512.81;;;23.58;27.28
41513;BME280;27244;59.940;30.280;2023-02-15T02:15:26;102511.59;;;23.59;27.11
41513;BME280;27244;59.940;30.280;2023-02-15T02:18:06;102514.44;;;23.62;27.46
41513;BME280;27244;59.940;30.280;2023-02-15T02:20:59;102518.47;;;23.61;27.28
41513;BME280;27244;59.940;30.280;2023-02-15T02:23:43;102520.47;;;23.61;27.15
41513;BME280;27244;59.940;30.280;2023-02-15T02:30:12;102510.00;;;23.58;27.24
41513;BME280;27244;59.940;30.280;2023-02-15T02:33:04;102508.78;;;23.55;27.00
41513;BME280;27244;59.940;30.280;2023-02-15T02:35:38;102503.16;;;23.48;27.05
41513;BME280;27244;59.940;30.280;2023-02-15T02:38:13;102497.50;;;23.48;26.86
41513;BME280;27244;59.940;30.280;2023-02-15T02:40:50;102494.69;;;23.48;26.76
41513;BME280;27244;59.940;30.280;2023-02-15T02:43:25;102498.75;;;23.47;26.49
41513;BME280;27244;59.940;30.280;2023-02-15T02:45:58;102494.69;;;23.44;26.37
41513;BME280;27244;59.940;30.280;2023-02-15T02:48:30;102506.75;;;23.45;26.56
41513;BME280;27244;59.940;30.280;2023-02-15T02:50:59;102508.38;;;23.42;26.39
41513;BME280;27244;59.940;30.280;2023-02-15T02:53:29;102512.00;;;23.43;26.56
41513;BME280;27244;59.940;30.280;2023-02-15T02:55:59;102506.34;;;23.39;26.28
41513;BME280;27244;59.940;30.280;2023-02-15T02:58:31;102505.53;;;23.39;26.31
41513;BME280;27244;59.940;30.280;2023-02-15T03:01:05;102508.34;;;23.39;26.53
41513;BME280;27244;59.940;30.280;2023-02-15T03:03:38;102490.25;;;23.36;26.32
41513;BME280;27244;59.940;30.280;2023-02-15T03:06:11;102503.91;;;23.38;26.16
41513;BME280;27244;59.940;30.280;2023-02-15T03:08:47;102497.09;;;23.39;26.12
41513;BME280;27244;59.940;30.280;2023-02-15T03:11:15;102498.69;;;23.36;26.01
41513;BME280;27244;59.940;30.280;2023-02-15T03:13:43;102498.69;;;23.36;26.06
41513;BME280;27244;59.940;30.280;2023-02-15T03:16:13;102492.25;;;23.36;26.03
41513;BME280;27244;59.940;30.280;2023-02-15T03:18:56;102495.06;;;23.39;26.19
41513;BME280;27244;59.940;30.280;2023-02-15T03:21:30;102504.72;;;23.38;26.01
41513;BME280;27244;59.940;30.280;2023-02-15T03:24:00;102492.66;;;23.38;26.05
41513;BME280;27244;59.940;30.280;2023-02-15T03:26:30;102487.44;;;23.33;25.68
41513;BME280;27244;59.940;30.280;2023-02-15T03:29:00;102477.34;;;23.32;25.64
41513;BME280;27244;59.940;30.280;2023-02-15T03:31:32;102480.19;;;23.39;25.76
41513;BME280;27244;59.940;30.280;2023-02-15T03:34:04;102491.84;;;23.34;25.77
41513;BME280;27244;59.940;30.280;2023-02-15T03:36:37;102491.03;;;23.37;25.74
41513;BME280;27244;59.940;30.280;2023-02-15T03:39:11;102484.63;;;23.33;25.85
41513;BME280;27244;59.940;30.280;2023-02-15T03:41:42;102488.22;;;23.33;25.59
41513;BME280;27244;59.940;30.280;2023-02-15T03:44:16;102499.09;;;23.35;25.74
41513;BME280;27244;59.940;30.280;2023-02-15T03:46:50;102496.66;;;23.33;25.69
41513;BME280;27244;59.940;30.280;2023-02-15T03:49:23;102497.47;;;23.34;25.68
41513;BME280;27244;59.940;30.280;2023-02-15T03:51:53;102488.19;;;23.30;25.58
41513;BME280;27244;59.940;30.280;2023-02-15T03:54:24;102480.56;;;23.30;25.40
41513;BME280;27244;59.940;30.280;2023-02-15T03:57:14;102487.81;;;23.31;25.46
41513;BME280;27244;59.940;30.280;2023-02-15T04:00:00;102487.00;;;23.27;25.64
41513;BME280;27244;59.940;30.280;2023-02-15T04:03:03;102478.16;;;23.22;25.67
41513;BME280;27244;59.940;30.280;2023-02-15T04:05:35;102489.81;;;23.27;25.48
41513;BME280;27244;59.940;30.280;2023-02-15T04:08:02;102476.94;;;23.23;25.61
41513;BME280;27244;59.940;30.280;2023-02-15T04:10:29;102495.88;;;23.26;25.43
41513;BME280;27244;59.940;30.280;2023-02-15T04:13:13;102479.75;;;23.19;25.47
41513;BME280;27244;59.940;30.280;2023-02-15T04:15:40;102487.81;;;23.24;25.35
41513;BME280;27244;59.940;30.280;2023-02-15T04:18:24;102487.00;;;23.24;25.37
41513;BME280;27244;59.940;30.280;2023-02-15T04:21:10;102495.44;;;23.27;25.41
41513;BME280;27244;59.940;30.280;2023-02-15T04:23:54;102497.44;;;23.27;25.36
41513;BME280;27244;59.940;30.280;2023-02-15T04:26:39;102485.00;;;23.28;25.41
41513;BME280;27244;59.940;30.280;2023-02-15T04:29:06;102493.06;;;23.26;25.46
41513;BME280;27244;59.940;30.280;2023-02-15T04:31:33;102500.69;;;23.25;25.23
41513;BME280;27244;59.940;30.280;2023-02-15T04:34:00;102491.44;;;23.21;25.46
41513;BME280;27244;59.940;30.280;2023-02-15T04:36:28;102492.63;;;23.24;25.16
41513;BME280;27244;59.940;30.280;2023-02-15T04:38:55;102488.19;;;23.16;25.37
41513;BME280;27244;59.940;30.280;2023-02-15T04:41:22;102494.22;;;23.18;25.38
41513;BME280;27244;59.940;30.280;2023-02-15T04:43:49;102498.25;;;23.17;25.04
41513;BME280;27244;59.940;30.280;2023-02-15T04:46:16;102495.03;;;23.18;25.74
41513;BME280;27244;59.940;30.280;2023-02-15T04:48:43;102487.38;;;23.12;25.28
41513;BME280;27244;59.940;30.280;2023-02-15T04:51:10;102494.22;;;23.18;25.12
41513;BME280;27244;59.940;30.280;2023-02-15T04:53:39;102495.84;;;23.19;25.33
41513;BME280;27244;59.940;30.280;2023-02-15T04:56:06;102491.41;;;23.18;25.23
41513;BME280;27244;59.940;30.280;2023-02-15T04:58:32;102484.97;;;23.17;25.33
41513;BME280;27244;59.940;30.280;2023-02-15T05:01:00;102491.81;;;23.16;25.25
41513;BME280;27244;59.940;30.280;2023-02-15T05:03:27;102493.81;;;23.16;25.13
41513;BME280;27244;59.940;30.280;2023-02-15T05:05:54;102491.00;;;23.16;25.23
41513;BME280;27244;59.940;30.280;2023-02-15T05:08:21;102503.06;;;23.16;25.11
41513;BME280;27244;59.940;30.280;2023-02-15T05:10:50;102480.16;;;23.11;25.32
41513;BME280;27244;59.940;30.280;2023-02-15T05:13:17;102493.41;;;23.14;25.30
41513;BME280;27244;59.940;30.280;2023-02-15T05:15:47;102499.06;;;23.17;25.07
41513;BME280;27244;59.940;30.280;2023-02-15T05:18:15;102500.66;;;23.15;25.12
41513;BME280;27244;59.940;30.280;2023-02-15T05:20:42;102494.22;;;23.14;25.17
41513;BME280;27244;59.940;30.280;2023-02-15T05:23:09;102486.97;;;23.10;25.27
41513;BME280;27244;59.940;30.280;2023-02-15T05:25:36;102497.44;;;23.13;25.18
41513;BME280;27244;59.940;30.280;2023-02-15T05:28:23;102492.59;;;23.10;25.09
41513;BME280;27244;59.940;30.280;2023-02-15T05:31:02;102501.47;;;23.19;25.11
41513;BME280;27244;59.940;30.280;2023-02-15T05:33:29;102503.47;;;23.15;25.13
41513;BME280;27244;59.940;30.280;2023-02-15T05:35:56;102500.66;;;23.15;25.30
41513;BME280;27244;59.940;30.280;2023-02-15T05:38:23;102491.00;;;23.16;25.20
41513;BME280;27244;59.940;30.280;2023-02-15T05:40:50;102495.03;;;23.18;25.47
41513;BME280;27244;59.940;30.280;2023-02-15T05:43:17;102493.81;;;23.23;25.56
41513;BME280;27244;59.940;30.280;2023-02-15T05:45:47;102496.66;;;23.26;25.93
41513;BME280;27244;59.940;30.280;2023-02-15T05:48:14;102489.81;;;23.27;25.98
41513;BME280;27244;59.940;30.280;2023-02-15T05:50:41;102491.81;;;23.30;26.05
41513;BME280;27244;59.940;30.280;2023-02-15T05:53:08;102486.19;;;23.34;26.27
41513;BME280;27244;59.940;30.280;2023-02-15T05:55:37;102479.75;;;23.37;26.34
41513;BME280;27244;59.940;30.280;2023-02-15T05:58:04;102479.75;;;23.37;26.34
41513;BME280;27244;59.940;30.280;2023-02-15T06:00:31;102481.00;;;23.39;26.53
41513;BME280;27244;59.940;30.280;2023-02-15T06:03:00;102477.00;;;23.44;26.59
41513;BME280;27244;59.940;30.280;2023-02-15T06:05:31;102489.06;;;23.48;26.72
41513;BME280;27244;59.940;30.280;2023-02-15T06:07:58;102474.19;;;23.47;26.76
41513;BME280;27244;59.940;30.280;2023-02-15T06:10:25;102483.03;;;23.53;26.98
41513;BME280;27244;59.940;30.280;2023-02-15T06:12:52;102485.84;;;23.57;26.99
41513;BME280;27244;59.940;30.280;2023-02-15T06:15:19;102490.28;;;23.58;27.15
41513;BME280;27244;59.940;30.280;2023-02-15T06:17:46;102484.66;;;23.61;27.23
41513;BME280;27244;59.940;30.280;2023-02-15T06:20:16;102494.31;;;23.60;27.22
41513;BME280;27244;59.940;30.280;2023-02-15T06:22:43;102493.91;;;23.62;27.35
41513;BME280;27244;59.940;30.280;2023-02-15T06:25:10;102478.59;;;23.63;27.48
41513;BME280;27244;59.940;30.280;2023-02-15T06:27:37;102478.22;;;23.64;27.70
41513;BME280;27244;59.940;30.280;2023-02-15T06:30:05;102485.47;;;23.65;27.66
41513;BME280;27244;59.940;30.280;2023-02-15T06:32:32;102487.06;;;23.66;27.77
41513;BME280;27244;59.940;30.280;2023-02-15T06:34:59;102484.25;;;23.66;27.79
41513;BME280;27244;59.940;30.280;2023-02-15T06:37:28;102486.28;;;23.73;28.47
41513;BME280;27244;59.940;30.280;2023-02-15T06:39:55;102494.72;;;23.69;29.51
41513;BME280;27244;59.940;30.280;2023-02-15T06:42:22;102492.69;;;23.80;28.51
41513;BME280;27244;59.940;30.280;2023-02-15T06:44:49;102493.50;;;23.81;28.33
41513;BME280;27244;59.940;30.280;2023-02-15T06:47:16;102493.50;;;23.81;28.27
41513;BME280;27244;59.940;30.280;2023-02-15T06:49:43;102498.75;;;23.79;28.35
41513;BME280;27244;59.940;30.280;2023-02-15T06:52:10;102498.31;;;23.84;28.33
41513;BME280;27244;59.940;30.280;2023-02-15T06:54:41;102495.50;;;23.80;28.40
41513;BME280;27244;59.940;30.280;2023-02-15T06:57:08;102501.56;;;23.82;28.36
41513;BME280;27244;59.940;30.280;2023-02-15T06:59:36;102500.75;;;23.82;28.42
41513;BME280;27244;59.940;30.280;2023-02-15T07:02:02;102497.13;;;23.85;28.47
41513;BME280;27244;59.940;30.280;2023-02-15T07:04:30;102496.72;;;23.83;28.63
41513;BME280;27244;59.940;30.280;2023-02-15T07:06:57;102495.91;;;23.82;28.62
41513;BME280;27244;59.940;30.280;2023-02-15T07:09:24;102500.75;;;23.85;28.54
41513;BME280;27244;59.940;30.280;2023-02-15T07:11:52;102500.75;;;23.85;28.60
41513;BME280;27244;59.940;30.280;2023-02-15T07:14:36;102501.16;;;23.87;28.65
41513;BME280;27244;59.940;30.280;2023-02-15T07:17:03;102501.16;;;23.91;28.85
41513;BME280;27244;59.940;30.280;2023-02-15T07:19:30;102502.38;;;23.90;28.88
41513;BME280;27244;59.940;30.280;2023-02-15T07:21:59;102507.56;;;23.91;28.92
41513;BME280;27244;59.940;30.280;2023-02-15T07:24:26;102507.56;;;23.91;29.01
41513;BME280;27244;59.940;30.280;2023-02-15T07:26:57;102510.00;;;23.93;29.02
41513;BME280;27244;59.940;30.280;2023-02-15T07:29:24;102502.75;;;23.92;28.88
41513;BME280;27244;59.940;30.280;2023-02-15T07:31:51;102506.81;;;23.87;28.93
41513;BME280;27244;59.940;30.280;2023-02-15T07:34:18;102509.19;;;23.92;29.03
41513;BME280;27244;59.940;30.280;2023-02-15T07:36:45;102513.22;;;23.95;29.12
41513;BME280;27244;59.940;30.280;2023-02-15T07:39:12;102508.81;;;23.97;28.96
41513;BME280;27244;59.940;30.280;2023-02-15T07:41:39;102512.81;;;23.96;29.14
41513;BME280;27244;59.940;30.280;2023-02-15T07:44:13;102512.81;;;24.00;29.20
41513;BME280;27244;59.940;30.280;2023-02-15T07:46:41;102513.63;;;23.97;29.19
41513;BME280;27244;59.940;30.280;2023-02-15T07:49:08;102517.25;;;23.97;29.33
41513;BME280;27244;59.940;30.280;2023-02-15T07:51:35;102520.88;;;23.94;29.32
41513;BME280;27244;59.940;30.280;2023-02-15T07:54:02;102520.47;;;23.96;29.21
41513;BME280;27244;59.940;30.280;2023-02-15T07:56:31;102522.47;;;24.06;29.36
41513;BME280;27244;59.940;30.280;2023-02-15T07:58:58;102522.06;;;24.04;29.45
41513;BME280;27244;59.940;30.280;2023-02-15T08:01:32;102531.34;;;24.12;29.52
41513;BME280;27244;59.940;30.280;2023-02-15T08:04:01;102526.50;;;24.09;29.75
41513;BME280;27244;59.940;30.280;2023-02-15T08:06:29;102531.72;;;24.07;29.82
41513;BME280;27244;59.940;30.280;2023-02-15T08:08:57;102529.34;;;24.05;29.82
41513;BME280;27244;59.940;30.280;2023-02-15T08:11:25;102526.09;;;24.10;29.87
41513;BME280;27244;59.940;30.280;2023-02-15T08:13:56;102527.31;;;24.13;30.28
41513;BME280;27244;59.940;30.280;2023-02-15T08:16:27;102529.34;;;24.16;30.33
41513;BME280;27244;59.940;30.280;2023-02-15T08:18:57;102533.75;;;24.13;30.35
41513;BME280;27244;59.940;30.280;2023-02-15T08:21:26;102525.72;;;24.22;29.51
41513;BME280;27244;59.940;30.280;2023-02-15T08:23:58;102532.56;;;24.18;30.32
41513;BME280;27244;59.940;30.280;2023-02-15T08:26:26;102532.56;;;24.18;30.40
41513;BME280;27244;59.940;30.280;2023-02-15T08:28:53;102514.81;;;24.07;30.38
41513;BME280;27244;59.940;30.280;2023-02-15T08:31:21;102537.38;;;24.17;30.45
41513;BME280;27244;59.940;30.280;2023-02-15T08:33:49;102529.75;;;24.14;30.45
41513;BME280;27244;59.940;30.280;2023-02-15T08:36:20;102531.34;;;24.19;30.52
41513;BME280;27244;59.940;30.280;2023-02-15T08:38:47;102525.72;;;24.19;30.53
41513;BME280;27244;59.940;30.280;2023-02-15T08:41:16;102528.13;;;24.13;30.53
41513;BME280;27244;59.940;30.280;2023-02-15T08:43:45;102522.09;;;24.15;30.43
41513;BME280;27244;59.940;30.280;2023-02-15T08:46:14;102531.34;;;24.19;30.59
41513;BME280;27244;59.940;30.280;2023-02-15T08:48:42;102526.53;;;24.19;30.57
41513;BME280;27244;59.940;30.280;2023-02-15T08:51:10;102528.13;;;24.17;30.60
41513;BME280;27244;59.940;30.280;2023-02-15T08:53:40;102529.75;;;24.18;30.76
41513;BME280;27244;59.940;30.280;2023-02-15T08:56:08;102536.19;;;24.18;30.79
41513;BME280;27244;59.940;30.280;2023-02-15T08:58:36;102527.72;;;24.11;30.60
41513;BME280;27244;59.940;30.280;2023-02-15T09:01:09;102522.06;;;24.11;30.99
41513;BME280;27244;59.940;30.280;2023-02-15T09:03:36;102518.84;;;24.06;30.94
41513;BME280;27244;59.940;30.280;2023-02-15T09:06:03;102519.66;;;24.02;30.89
41513;BME280;27244;59.940;30.280;2023-02-15T09:08:31;102516.84;;;24.02;30.83
41513;BME280;27244;59.940;30.280;2023-02-15T09:11:11;102512.00;;;24.07;30.94
41513;BME280;27244;59.940;30.280;2023-02-15T09:13:39;102514.03;;;23.95;31.30
41513;BME280;27244;59.940;30.280;2023-02-15T09:16:08;102514.81;;;23.96;31.10
41513;BME280;27244;59.940;30.280;2023-02-15T09:18:37;102509.19;;;23.92;31.31
41513;BME280;27244;59.940;30.280;2023-02-15T09:21:06;102504.75;;;23.91;31.30
41513;BME280;27244;59.940;30.280;2023-02-15T09:23:34;102503.16;;;23.90;31.45
41513;BME280;27244;59.940;30.280;2023-02-15T09:26:04;102503.56;;;23.92;31.33
41513;BME280;27244;59.940;30.280;2023-02-15T09:28:32;102500.34;;;23.90;31.32
41513;BME280;27244;59.940;30.280;2023-02-15T09:31:10;102501.56;;;23.93;32.07
41513;BME280;27244;59.940;30.280;2023-02-15T09:33:39;102501.56;;;23.89;32.10
41513;BME280;27244;59.940;30.280;2023-02-15T09:36:17;102508.00;;;23.93;31.58
41513;BME280;27244;59.940;30.280;2023-02-15T09:38:44;102503.19;;;23.87;31.92
41513;BME280;27244;59.940;30.280;2023-02-15T09:41:47;102503.97;;;23.98;31.69
41513;BME280;27244;59.940;30.280;2023-02-15T09:44:30;102503.56;;;23.96;32.19
41513;BME280;27244;59.940;30.280;2023-02-15T09:47:19;102502.34;;;23.97;31.77
41513;BME280;27244;59.940;30.280;2023-02-15T09:49:58;102502.34;;;23.93;32.04
41513;BME280;27244;59.940;30.280;2023-02-15T09:52:42;102502.75;;;23.88;31.93
41513;BME280;27244;59.940;30.280;2023-02-15T09:55:23;102509.19;;;23.92;32.04
41513;BME280;27244;59.940;30.280;2023-02-15T09:57:58;102511.63;;;23.90;32.05
41513;BME280;27244;59.940;30.280;2023-02-15T10:00:37;102512.81;;;23.89;32.10
41513;BME280;27244;59.940;30.280;2023-02-15T10:03:27;102510.41;;;23.95;31.95
41513;BME280;27244;59.940;30.280;2023-02-15T10:06:22;102508.38;;;23.88;31.98
41513;BME280;27244;59.940;30.280;2023-02-15T10:09:22;102515.25;;;23.94;31.95
41513;BME280;27244;59.940;30.280;2023-02-15T10:12:06;102499.94;;;23.88;31.97
41513;BME280;27244;59.940;30.280;2023-02-15T10:14:53;102495.91;;;23.86;32.01
41513;BME280;27244;59.940;30.280;2023-02-15T10:17:37;102508.00;;;23.93;31.95
41513;BME280;27244;59.940;30.280;2023-02-15T10:20:08;102506.38;;;24.03;31.32
41513;BME280;27244;59.940;30.280;2023-02-15T10:22:52;102512.81;;;23.93;31.87
41513;BME280;27244;59.940;30.280;2023-02-15T10:25:30;102506.00;;;23.90;32.08
41513;BME280;27244;59.940;30.280;2023-02-15T10:28:04;102505.19;;;23.90;32.03
41513;BME280;27244;59.940;30.280;2023-02-15T10:30:39;102501.56;;;23.89;32.06
41513;BME280;27244;59.940;30.280;2023-02-15T10:33:18;102495.91;;;23.86;32.32
41513;BME280;27244;59.940;30.280;2023-02-15T10:35:57;102495.91;;;23.89;31.74
41513;BME280;27244;59.940;30.280;2023-02-15T10:38:33;102482.63;;;23.86;31.15
41513;BME280;27244;59.940;30.280;2023-02-15T10:41:13;102485.47;;;23.86;30.57
41513;BME280;27244;59.940;30.280;2023-02-15T10:43:51;102481.84;;;23.82;30.54
41513;BME280;27244;59.940;30.280;2023-02-15T10:46:36;102485.84;;;23.78;30.11
41513;BME280;27244;59.940;30.280;2023-02-15T10:49:26;102499.13;;;23.81;29.96
41513;BME280;27244;59.940;30.280;2023-02-15T10:52:11;102475.78;;;23.73;29.41
41513;BME280;27244;59.940;30.280;2023-02-15T10:54:44;102488.28;;;23.72;29.08
41513;BME280;27244;59.940;30.280;2023-02-15T10:57:18;102481.84;;;23.72;29.65
41513;BME280;27244;59.940;30.280;2023-02-15T11:00:05;102470.16;;;23.73;29.40
41513;BME280;27244;59.940;30.280;2023-02-15T11:02:49;102461.69;;;23.73;29.40
41513;BME280;27244;59.940;30.280;2023-02-15T11:05:38;102468.94;;;23.74;29.55
41513;BME280;27244;59.940;30.280;2023-02-15T11:08:09;102464.50;;;23.66;29.55
41513;BME280;27244;59.940;30.280;2023-02-15T11:10:39;102472.97;;;23.70;29.83
41513;BME280;27244;59.940;30.280;2023-02-15T11:13:10;102471.78;;;23.67;29.82
41513;BME280;27244;59.940;30.280;2023-02-15T11:15:44;102477.81;;;23.73;30.05
41513;BME280;27244;59.940;30.280;2023-02-15T11:18:16;102473.38;;;23.72;30.03
41513;BME280;27244;59.940;30.280;2023-02-15T11:20:53;102474.59;;;23.74;30.19
41513;BME280;27244;59.940;30.280;2023-02-15T11:23:24;102481.84;;;23.75;30.23
41513;BME280;27244;59.940;30.280;2023-02-15T11:25:56;102483.84;;;23.78;30.31
41513;BME280;27244;59.940;30.280;2023-02-15T11:28:29;102476.19;;;23.79;30.35
41513;BME280;27244;59.940;30.280;2023-02-15T11:31:00;102478.59;;;23.77;30.55
41513;BME280;27244;59.940;30.280;2023-02-15T11:33:33;102482.22;;;23.77;30.43
41513;BME280;27244;59.940;30.280;2023-02-15T11:36:06;102481.41;;;23.80;30.72
41513;BME280;27244;59.940;30.280;2023-02-15T11:38:36;102471.75;;;23.78;30.59
41513;BME280;27244;59.940;30.280;2023-02-15T11:41:09;102480.63;;;23.80;30.68
41513;BME280;27244;59.940;30.280;2023-02-15T11:43:39;102476.59;;;23.74;30.71
41513;BME280;27244;59.940;30.280;2023-02-15T11:46:11;102478.22;;;23.78;30.85
41513;BME280;27244;59.940;30.280;2023-02-15T11:48:40;102470.56;;;23.79;30.78
41513;BME280;27244;59.940;30.280;2023-02-15T11:51:14;102467.31;;;23.80;30.98
41513;BME280;27244;59.940;30.280;2023-02-15T11:53:43;102453.66;;;23.75;30.99
41513;BME280;27244;59.940;30.280;2023-02-15T11:56:14;102460.91;;;23.80;30.94
41513;BME280;27244;59.940;30.280;2023-02-15T11:58:45;102459.69;;;23.81;31.00
41513;BME280;27244;59.940;30.280;2023-02-15T12:01:16;102460.50;;;23.81;31.05
41513;BME280;27244;59.940;30.280;2023-02-15T12:03:47;102460.09;;;23.83;31.10
41513;BME280;27244;59.940;30.280;2023-02-15T12:06:22;102457.66;;;23.81;31.13
41513;BME280;27244;59.940;30.280;2023-02-15T12:08:56;102460.09;;;23.83;31.40
41513;BME280;27244;59.940;30.280;2023-02-15T12:11:30;102462.91;;;23.86;31.35
41513;BME280;27244;59.940;30.280;2023-02-15T12:14:01;102454.47;;;23.83;31.31
41513;BME280;27244;59.940;30.280;2023-02-15T12:16:31;102458.47;;;23.82;31.21
41513;BME280;27244;59.940;30.280;2023-02-15T12:19:00;102452.44;;;23.83;31.15
41513;BME280;27244;59.940;30.280;2023-02-15T12:21:31;102443.56;;;23.81;31.32
41513;BME280;27244;59.940;30.280;2023-02-15T12:24:03;102451.22;;;23.84;31.47
41513;BME280;27244;59.940;30.280;2023-02-15T12:26:32;102454.03;;;23.84;31.35
41513;BME280;27244;59.940;30.280;2023-02-15T12:29:02;102457.66;;;23.85;31.41
41513;BME280;27244;59.940;30.280;2023-02-15T12:31:36;102445.59;;;23.84;31.34
41513;BME280;27244;59.940;30.280;2023-02-15T12:34:10;102451.63;;;23.86;31.42
41513;BME280;27244;59.940;30.280;2023-02-15T12:36:44;102456.47;;;23.86;31.31
41513;BME280;27244;59.940;30.280;2023-02-15T12:39:20;102456.06;;;23.87;31.32
41513;BME280;27244;59.940;30.280;2023-02-15T12:41:59;102457.66;;;23.88;31.35
41513;BME280;27244;59.940;30.280;2023-02-15T12:44:29;102456.47;;;23.82;31.40
41513;BME280;27244;59.940;30.280;2023-02-15T12:46:58;102461.28;;;23.82;31.62
41513;BME280;27244;59.940;30.280;2023-02-15T12:49:26;102451.22;;;23.77;31.47
41513;BME280;27244;59.940;30.280;2023-02-15T12:51:56;102456.03;;;23.84;31.54
41513;BME280;27244;59.940;30.280;2023-02-15T12:54:44;102455.66;;;23.89;31.38
41513;BME280;27244;59.940;30.280;2023-02-15T12:57:29;102460.47;;;23.88;31.45
41513;BME280;27244;59.940;30.280;2023-02-15T12:59:58;102467.75;;;23.82;31.57
41513;BME280;27244;59.940;30.280;2023-02-15T13:02:33;102464.50;;;23.84;31.59
41513;BME280;27244;59.940;30.280;2023-02-15T13:05:14;102467.34;;;23.87;31.60
41513;BME280;27244;59.940;30.280;2023-02-15T13:07:52;102477.38;;;23.88;31.66